createdAt,value
2017-08-22T00:00:25.662Z,0
2017-08-22T00:01:25.697Z,0
2017-08-22T00:02:54.910Z,0
2017-08-22T00:03:25.413Z,0
2017-08-22T00:04:25.457Z,0
2017-08-22T00:05:26.102Z,0
2017-08-22T00:06:40.399Z,0
2017-08-22T00:07:40.735Z,0
2017-08-22T00:08:25.853Z,0
2017-08-22T00:09:26.171Z,0
2017-08-22T00:10:26.391Z,0
2017-08-22T00:11:25.926Z,0
2017-08-22T00:12:25.944Z,0
2017-08-22T00:13:26.264Z,0
2017-08-22T00:14:40.913Z,0
2017-08-22T00:15:40.933Z,0
2017-08-22T00:16:26.025Z,0
2017-08-22T00:17:26.404Z,0
2017-08-22T00:20:26.430Z,0
2017-08-22T00:21:26.446Z,0
2017-08-22T00:22:26.178Z,0
2017-08-22T00:23:40.776Z,0
2017-08-22T00:24:26.535Z,0
2017-08-22T00:25:26.231Z,0
2017-08-22T00:26:26.268Z,0
2017-08-22T00:27:25.952Z,0
2017-08-22T00:28:26.631Z,0
2017-08-22T00:29:40.916Z,0
2017-08-22T00:31:26.677Z,0
2017-08-22T00:33:26.743Z,0
2017-08-22T00:34:26.434Z,0
2017-08-22T00:35:26.791Z,0
2017-08-22T00:36:41.403Z,0
2017-08-22T00:37:41.427Z,0
2017-08-22T00:38:26.856Z,0
2017-08-22T00:39:41.141Z,0
2017-08-22T00:40:26.577Z,0
2017-08-22T00:41:26.962Z,0
2017-08-22T00:42:26.934Z,0
2017-08-22T00:43:26.946Z,0
2017-08-22T00:45:27.008Z,0
2017-08-22T00:46:27.036Z,0
2017-08-22T00:47:27.053Z,0
2017-08-22T00:48:27.080Z,0
2017-08-22T00:49:41.685Z,0
2017-08-22T00:50:27.105Z,0
2017-08-22T00:51:26.824Z,0
2017-08-22T00:52:27.165Z,0
2017-08-22T00:53:27.195Z,0
2017-08-22T00:56:27.239Z,0
2017-08-22T00:57:27.265Z,0
2017-08-22T00:58:26.984Z,0
2017-08-22T00:59:27.360Z,0
2017-08-22T01:00:27.043Z,0
2017-08-22T01:01:27.377Z,0
2017-08-22T01:02:41.663Z,0
2017-08-22T01:03:27.396Z,0
2017-08-22T01:04:26.820Z,0
2017-08-22T01:05:27.126Z,0
2017-08-22T01:06:42.080Z,0
2017-08-22T01:07:27.506Z,0
2017-08-22T01:08:27.533Z,0
2017-08-22T01:09:27.548Z,0
2017-08-22T01:10:27.576Z,0
2017-08-22T01:11:42.185Z,0
2017-08-22T01:12:27.321Z,0
2017-08-22T01:13:27.629Z,0
2017-08-22T01:14:41.947Z,0
2017-08-22T01:15:27.664Z,0
2017-08-22T01:16:27.410Z,0
2017-08-22T01:17:27.457Z,0
2017-08-22T01:18:42.351Z,0
2017-08-22T01:19:42.065Z,0
2017-08-22T01:20:27.489Z,0
2017-08-22T01:21:27.517Z,0
2017-08-22T01:22:27.830Z,0
2017-08-22T01:24:27.583Z,0
2017-08-22T01:25:27.606Z,0
2017-08-22T01:26:27.607Z,0
2017-08-22T01:27:57.156Z,0
2017-08-22T01:28:27.354Z,0
2017-08-22T01:29:27.982Z,0
2017-08-22T01:30:27.719Z,0
2017-08-22T01:31:27.730Z,0
2017-08-22T01:32:28.072Z,0
2017-08-22T01:33:28.064Z,0
2017-08-22T01:34:28.124Z,0
2017-08-22T01:35:27.815Z,0
2017-08-22T01:36:28.156Z,0
2017-08-22T01:37:28.169Z,0
2017-08-22T01:38:27.579Z,0
2017-08-22T01:39:28.207Z,0
2017-08-22T01:40:27.650Z,0
2017-08-22T01:41:28.246Z,0
2017-08-22T01:42:42.585Z,0
2017-08-22T01:43:28.295Z,0
2017-08-22T01:44:28.340Z,0
2017-08-22T01:45:28.035Z,0
2017-08-22T01:46:28.410Z,0
2017-08-22T01:47:28.409Z,0
2017-08-22T01:48:28.413Z,0
2017-08-22T01:49:28.453Z,0
2017-08-22T01:50:28.466Z,0
2017-08-22T01:51:28.178Z,0
2017-08-22T01:52:57.705Z,0
2017-08-22T01:53:28.540Z,0
2017-08-22T01:54:28.562Z,0
2017-08-22T01:55:28.588Z,0
2017-08-22T01:56:28.610Z,0
2017-08-22T01:57:28.617Z,0
2017-08-22T01:59:43.259Z,0
2017-08-22T02:00:43.295Z,0
2017-08-22T02:01:28.698Z,0
2017-08-22T02:02:28.727Z,0
2017-08-22T02:03:28.806Z,0
2017-08-22T02:04:43.377Z,0
2017-08-22T02:05:28.794Z,0
2017-08-22T02:06:43.434Z,0
2017-08-22T02:07:28.843Z,0
2017-08-22T02:08:28.884Z,0
2017-08-22T02:09:28.887Z,0
2017-08-22T02:10:28.942Z,0
2017-08-22T02:11:43.581Z,0
2017-08-22T02:12:28.662Z,0
2017-08-22T02:13:43.561Z,0
2017-08-22T02:14:43.609Z,0
2017-08-22T02:15:29.065Z,0
2017-08-22T02:16:28.757Z,0
2017-08-22T02:17:29.072Z,0
2017-08-22T02:18:29.109Z,0
2017-08-22T02:20:29.156Z,0
2017-08-22T02:21:29.162Z,0
2017-08-22T02:22:29.169Z,0
2017-08-22T02:23:29.214Z,0
2017-08-22T02:24:43.834Z,0
2017-08-22T02:25:28.933Z,0
2017-08-22T02:26:43.851Z,0
2017-08-22T02:27:29.301Z,0
2017-08-22T02:28:29.305Z,0
2017-08-22T02:29:29.341Z,0
2017-08-22T02:30:43.963Z,0
2017-08-22T02:31:29.409Z,0
2017-08-22T02:32:29.389Z,0
2017-08-22T02:33:29.124Z,0
2017-08-22T02:34:29.443Z,0
2017-08-22T02:35:29.481Z,0
2017-08-22T02:37:43.819Z,0
2017-08-22T02:38:29.561Z,0
2017-08-22T02:39:29.561Z,0
2017-08-22T02:40:43.868Z,0
2017-08-22T02:41:29.280Z,0
2017-08-22T02:43:29.321Z,0
2017-08-22T02:44:44.283Z,0
2017-08-22T02:45:44.297Z,0
2017-08-22T02:46:44.321Z,0
2017-08-22T02:47:58.637Z,0
2017-08-22T02:48:44.363Z,0
2017-08-22T02:49:29.772Z,0
2017-08-22T02:50:29.824Z,0
2017-08-22T02:51:29.531Z,0
2017-08-22T02:52:29.866Z,0
2017-08-22T02:53:29.565Z,0
2017-08-22T02:54:29.602Z,0
2017-08-22T02:55:44.501Z,0
2017-08-22T02:56:29.628Z,0
2017-08-22T02:57:29.955Z,0
2017-08-22T02:58:29.685Z,0
2017-08-22T02:59:29.988Z,0
2017-08-22T03:00:30.026Z,0
2017-08-22T03:01:30.040Z,0
2017-08-22T03:02:44.372Z,0
2017-08-22T03:04:30.132Z,0
2017-08-22T03:05:30.107Z,0
2017-08-22T03:06:30.162Z,0
2017-08-22T03:07:30.193Z,0
2017-08-22T03:08:30.224Z,0
2017-08-22T03:09:30.242Z,0
2017-08-22T03:10:30.242Z,0
2017-08-22T03:11:30.273Z,0
2017-08-22T03:12:29.973Z,0
2017-08-22T03:13:30.023Z,0
2017-08-22T03:14:30.021Z,0
2017-08-22T03:15:30.398Z,0
2017-08-22T03:16:30.399Z,0
2017-08-22T03:17:44.385Z,0
2017-08-22T03:18:44.708Z,0
2017-08-22T03:19:45.048Z,0
2017-08-22T03:20:30.537Z,0
2017-08-22T03:21:30.172Z,0
2017-08-22T03:22:45.121Z,0
2017-08-22T03:23:30.532Z,0
2017-08-22T03:24:30.236Z,0
2017-08-22T03:25:30.288Z,0
2017-08-22T03:26:30.614Z,0
2017-08-22T03:27:45.218Z,0
2017-08-22T03:28:45.252Z,0
2017-08-22T03:29:45.278Z,0
2017-08-22T03:30:30.083Z,0
2017-08-22T03:31:30.382Z,0
2017-08-22T03:32:45.341Z,0
2017-08-22T03:33:30.452Z,0
2017-08-22T03:34:30.155Z,0
2017-08-22T03:35:30.805Z,0
2017-08-22T03:36:45.411Z,0
2017-08-22T03:37:30.856Z,0
2017-08-22T03:38:30.853Z,0
2017-08-22T03:39:30.586Z,0
2017-08-22T03:40:30.900Z,0
2017-08-22T03:41:30.327Z,0
2017-08-22T03:42:30.938Z,0
2017-08-22T03:43:30.664Z,0
2017-08-22T03:44:30.987Z,0
2017-08-22T03:45:30.720Z,0
2017-08-22T03:46:30.744Z,0
2017-08-22T03:47:31.070Z,0
2017-08-22T03:48:30.779Z,0
2017-08-22T03:49:45.411Z,0
2017-08-22T03:50:45.738Z,0
2017-08-22T03:51:45.452Z,0
2017-08-22T03:52:31.171Z,0
2017-08-22T03:53:31.192Z,0
2017-08-22T03:54:30.931Z,0
2017-08-22T03:55:30.956Z,0
2017-08-22T03:56:31.270Z,0
2017-08-22T03:57:30.985Z,0
2017-08-22T03:58:45.912Z,5
2017-08-22T03:59:45.925Z,5
2017-08-22T04:00:45.938Z,5
2017-08-22T04:01:31.074Z,5
2017-08-22T04:02:45.989Z,10
2017-08-22T04:03:31.431Z,10
2017-08-22T04:05:45.752Z,10
2017-08-22T04:06:31.193Z,10
2017-08-22T04:07:31.210Z,15
2017-08-22T04:08:31.215Z,15
2017-08-22T04:09:31.554Z,15
2017-08-22T04:10:31.260Z,20
2017-08-22T04:11:31.536Z,20
2017-08-22T04:12:31.313Z,20
2017-08-22T04:13:31.648Z,25
2017-08-22T04:14:31.645Z,25
2017-08-22T04:15:31.693Z,25
2017-08-22T04:16:31.715Z,30
2017-08-22T04:17:31.737Z,30
2017-08-22T04:18:31.447Z,30
2017-08-22T04:19:46.070Z,30
2017-08-22T04:20:31.160Z,30
2017-08-22T04:21:46.105Z,35
2017-08-22T04:22:31.834Z,35
2017-08-22T04:23:31.553Z,35
2017-08-22T04:25:31.900Z,40
2017-08-22T04:26:46.520Z,40
2017-08-22T04:27:31.948Z,40
2017-08-22T04:28:31.982Z,45
2017-08-22T04:29:32.028Z,45
2017-08-22T04:30:32.032Z,45
2017-08-22T04:31:32.027Z,50
2017-08-22T04:32:32.065Z,50
2017-08-22T04:33:46.671Z,55
2017-08-22T04:34:46.686Z,55
2017-08-22T04:35:32.135Z,55
2017-08-22T04:36:32.139Z,60
2017-08-22T04:37:46.475Z,60
2017-08-22T04:38:31.894Z,60
2017-08-22T04:39:32.214Z,65
2017-08-22T04:40:31.927Z,65
2017-08-22T04:41:32.264Z,70
2017-08-22T04:42:46.867Z,75
2017-08-22T04:43:32.311Z,75
2017-08-22T04:44:32.323Z,80
2017-08-22T04:45:32.349Z,80
2017-08-22T04:46:32.378Z,90
2017-08-22T04:47:47.002Z,95
2017-08-22T04:48:32.453Z,95
2017-08-22T04:49:32.435Z,100
2017-08-22T04:50:32.461Z,110
2017-08-22T04:51:32.480Z,110
2017-08-22T04:52:47.103Z,115
2017-08-22T04:53:32.527Z,125
2017-08-22T04:54:32.564Z,155
2017-08-22T04:55:32.561Z,200
2017-08-22T04:56:32.289Z,210
2017-08-22T04:57:32.312Z,215
2017-08-22T04:58:32.335Z,220
2017-08-22T04:59:47.264Z,225
2017-08-22T05:00:32.716Z,225
2017-08-22T05:01:32.692Z,235
2017-08-22T05:02:32.748Z,240
2017-08-22T05:03:32.743Z,250
2017-08-22T05:04:32.782Z,245
2017-08-22T05:05:47.411Z,245
2017-08-22T05:06:32.827Z,245
2017-08-22T05:07:32.868Z,250
2017-08-22T05:08:47.447Z,260
2017-08-22T05:09:32.904Z,265
2017-08-22T05:10:47.526Z,270
2017-08-22T05:11:47.239Z,270
2017-08-22T05:12:32.965Z,275
2017-08-22T05:14:02.195Z,275
2017-08-22T05:14:32.689Z,270
2017-08-22T05:15:32.421Z,275
2017-08-22T05:16:33.075Z,280
2017-08-22T05:17:33.104Z,280
2017-08-22T05:18:32.834Z,235
2017-08-22T05:19:33.152Z,175
2017-08-22T05:20:47.445Z,180
2017-08-22T05:21:33.187Z,195
2017-08-22T05:23:32.968Z,190
2017-08-22T05:25:02.175Z,190
2017-08-22T05:25:33.306Z,190
2017-08-22T05:26:33.312Z,190
2017-08-22T05:27:33.335Z,220
2017-08-22T05:29:33.093Z,305
2017-08-22T05:31:48.035Z,340
2017-08-22T05:32:48.073Z,340
2017-08-22T05:33:33.531Z,350
2017-08-22T05:34:33.197Z,355
2017-08-22T05:35:33.513Z,360
2017-08-22T05:36:33.575Z,370
2017-08-22T05:37:33.569Z,370
2017-08-22T05:38:33.616Z,385
2017-08-22T05:39:48.226Z,400
2017-08-22T05:40:48.257Z,400
2017-08-22T05:41:33.682Z,390
2017-08-22T05:42:48.319Z,400
2017-08-22T05:43:33.783Z,410
2017-08-22T05:45:33.781Z,420
2017-08-22T05:46:33.804Z,435
2017-08-22T05:47:33.845Z,440
2017-08-22T05:48:33.888Z,440
2017-08-22T05:49:33.612Z,450
2017-08-22T05:50:48.517Z,470
2017-08-22T05:51:33.941Z,480
2017-08-22T05:52:33.995Z,495
2017-08-22T05:53:33.979Z,490
2017-08-22T05:54:33.735Z,500
2017-08-22T05:55:33.740Z,495
2017-08-22T05:56:48.357Z,515
2017-08-22T05:57:33.798Z,520
2017-08-22T05:58:34.145Z,535
2017-08-22T05:59:34.175Z,555
2017-08-22T06:00:34.167Z,565
2017-08-22T06:01:34.219Z,600
2017-08-22T06:02:33.925Z,615
2017-08-22T06:03:34.281Z,595
2017-08-22T06:04:33.982Z,630
2017-08-22T06:05:34.326Z,655
2017-08-22T06:06:34.370Z,660
2017-08-22T06:07:34.378Z,675
2017-08-22T06:08:34.426Z,680
2017-08-22T06:09:34.429Z,695
2017-08-22T06:10:49.063Z,705
2017-08-22T06:11:34.163Z,710
2017-08-22T06:12:49.112Z,745
2017-08-22T06:13:34.255Z,755
2017-08-22T06:14:34.585Z,755
2017-08-22T06:15:49.224Z,740
2017-08-22T06:16:34.655Z,735
2017-08-22T06:17:34.690Z,750
2017-08-22T06:18:34.390Z,725
2017-08-22T06:19:49.337Z,725
2017-08-22T06:20:49.392Z,765
2017-08-22T06:21:34.772Z,775
2017-08-22T06:22:49.131Z,775
2017-08-22T06:23:49.448Z,770
2017-08-22T06:24:49.476Z,760
2017-08-22T06:25:34.913Z,750
2017-08-22T06:26:34.928Z,740
2017-08-22T06:27:49.268Z,770
2017-08-22T06:28:34.691Z,745
2017-08-22T06:29:34.733Z,735
2017-08-22T06:30:34.486Z,480
2017-08-22T06:31:49.700Z,465
2017-08-22T06:32:35.143Z,530
2017-08-22T06:33:35.161Z,670
2017-08-22T06:34:35.177Z,625
2017-08-22T06:36:34.933Z,630
2017-08-22T06:38:35.003Z,620
2017-08-22T06:39:35.357Z,585
2017-08-22T06:40:35.384Z,580
2017-08-22T06:41:35.404Z,575
2017-08-22T06:42:35.454Z,570
2017-08-22T06:43:35.150Z,545
2017-08-22T06:44:35.519Z,545
2017-08-22T06:45:49.799Z,545
2017-08-22T06:46:50.177Z,545
2017-08-22T06:47:35.298Z,550
2017-08-22T06:48:35.624Z,560
2017-08-22T06:49:35.652Z,570
2017-08-22T06:50:50.279Z,595
2017-08-22T06:51:35.419Z,595
2017-08-22T06:52:50.354Z,585
2017-08-22T06:53:50.393Z,615
2017-08-22T06:54:35.510Z,685
2017-08-22T06:55:35.559Z,950
2017-08-22T06:56:35.572Z,1320
2017-08-22T06:57:35.940Z,1530
2017-08-22T06:58:50.571Z,1380
2017-08-22T06:59:50.585Z,1185
2017-08-22T07:00:36.014Z,1125
2017-08-22T07:01:35.741Z,1155
2017-08-22T07:02:36.073Z,1195
2017-08-22T07:03:35.500Z,1140
2017-08-22T07:04:36.146Z,1085
2017-08-22T07:05:50.770Z,1015
2017-08-22T07:06:36.216Z,1055
2017-08-22T07:08:50.260Z,1075
2017-08-22T07:09:36.294Z,1055
2017-08-22T07:10:50.654Z,1035
2017-08-22T07:11:36.390Z,1035
2017-08-22T07:12:36.409Z,1065
2017-08-22T07:13:36.450Z,1010
2017-08-22T07:14:36.481Z,985
2017-08-22T07:15:51.122Z,1005
2017-08-22T07:16:36.539Z,1005
2017-08-22T07:17:36.594Z,990
2017-08-22T07:18:51.234Z,1015
2017-08-22T07:19:36.637Z,1050
2017-08-22T07:20:36.680Z,1020
2017-08-22T07:21:36.688Z,810
2017-08-22T07:22:36.743Z,550
2017-08-22T07:23:36.792Z,880
2017-08-22T07:24:36.507Z,670
2017-08-22T07:25:36.525Z,665
2017-08-22T07:26:36.262Z,475
2017-08-22T07:27:36.927Z,515
2017-08-22T07:28:36.952Z,545
2017-08-22T07:29:36.984Z,670
2017-08-22T07:30:36.996Z,560
2017-08-22T07:32:37.099Z,600
2017-08-22T07:33:37.104Z,560
2017-08-22T07:34:37.149Z,940
2017-08-22T07:35:37.173Z,945
2017-08-22T07:36:37.213Z,800
2017-08-22T07:37:37.229Z,785
2017-08-22T07:38:51.863Z,860
2017-08-22T07:39:37.286Z,490
2017-08-22T07:40:37.340Z,470
2017-08-22T07:42:37.421Z,930
2017-08-22T07:43:37.419Z,910
2017-08-22T07:44:37.441Z,920
2017-08-22T07:45:37.197Z,915
2017-08-22T07:46:37.205Z,890
2017-08-22T07:47:52.164Z,935
2017-08-22T07:48:37.582Z,920
2017-08-22T07:49:37.328Z,910
2017-08-22T07:50:52.242Z,910
2017-08-22T07:51:37.667Z,905
2017-08-22T07:52:37.740Z,905
2017-08-22T07:53:37.759Z,895
2017-08-22T07:54:52.479Z,915
2017-08-22T07:55:52.413Z,955
2017-08-22T07:56:37.839Z,940
2017-08-22T07:57:37.880Z,915
2017-08-22T07:58:37.306Z,905
2017-08-22T07:59:37.315Z,910
2017-08-22T08:00:37.994Z,910
2017-08-22T08:02:52.347Z,935
2017-08-22T08:03:38.068Z,970
2017-08-22T08:04:38.120Z,795
2017-08-22T08:05:52.749Z,530
2017-08-22T08:08:38.223Z,435
2017-08-22T08:09:52.883Z,345
2017-08-22T08:10:52.909Z,350
2017-08-22T08:11:38.336Z,385
2017-08-22T08:12:38.399Z,340
2017-08-22T08:13:38.396Z,520
2017-08-22T08:14:38.440Z,400
2017-08-22T08:15:38.443Z,365
2017-08-22T08:16:38.490Z,385
2017-08-22T08:17:38.504Z,495
2017-08-22T08:18:38.585Z,430
2017-08-22T08:19:38.577Z,350
2017-08-22T08:20:38.642Z,310
2017-08-22T08:21:38.659Z,315
2017-08-22T08:22:53.308Z,285
2017-08-22T08:23:37.783Z,275
2017-08-22T08:24:38.787Z,260
2017-08-22T08:25:38.786Z,245
2017-08-22T08:26:38.814Z,230
2017-08-22T08:27:38.516Z,220
2017-08-22T08:28:38.884Z,210
2017-08-22T08:29:53.483Z,200
2017-08-22T08:30:38.625Z,190
2017-08-22T08:31:38.940Z,185
2017-08-22T08:32:38.985Z,180
2017-08-22T08:34:53.630Z,170
2017-08-22T08:35:39.081Z,170
2017-08-22T08:36:39.091Z,180
2017-08-22T08:37:39.142Z,170
2017-08-22T08:39:53.454Z,175
2017-08-22T08:40:39.221Z,180
2017-08-22T08:41:38.936Z,190
2017-08-22T08:42:39.295Z,200
2017-08-22T08:43:39.304Z,205
2017-08-22T08:44:39.012Z,215
2017-08-22T08:45:39.031Z,220
2017-08-22T08:46:53.991Z,220
2017-08-22T08:47:39.409Z,205
2017-08-22T08:48:39.442Z,190
2017-08-22T08:49:39.169Z,185
2017-08-22T08:50:54.094Z,180
2017-08-22T08:51:54.110Z,185
2017-08-22T08:52:39.247Z,185
2017-08-22T08:53:39.551Z,190
2017-08-22T08:54:39.608Z,195
2017-08-22T08:55:39.302Z,205
2017-08-22T08:57:39.683Z,220
2017-08-22T08:59:39.769Z,215
2017-08-22T09:00:39.743Z,210
2017-08-22T09:01:39.797Z,205
2017-08-22T09:03:54.130Z,200
2017-08-22T09:04:54.487Z,205
2017-08-22T09:05:39.924Z,210
2017-08-22T09:07:09.132Z,215
2017-08-22T09:07:39.951Z,215
2017-08-22T09:08:39.994Z,210
2017-08-22T09:09:39.370Z,205
2017-08-22T09:10:40.009Z,200
2017-08-22T09:11:54.669Z,200
2017-08-22T09:13:39.500Z,195
2017-08-22T09:14:39.831Z,200
2017-08-22T09:15:40.168Z,205
2017-08-22T09:16:54.776Z,210
2017-08-22T09:17:40.231Z,215
2017-08-22T09:18:40.251Z,215
2017-08-22T09:19:54.242Z,215
2017-08-22T09:20:40.296Z,220
2017-08-22T09:21:40.346Z,225
2017-08-22T09:22:54.652Z,225
2017-08-22T09:24:40.098Z,235
2017-08-22T09:25:55.015Z,245
2017-08-22T09:26:40.149Z,255
2017-08-22T09:27:40.158Z,250
2017-08-22T09:28:40.532Z,245
2017-08-22T09:30:40.271Z,255
2017-08-22T09:31:39.986Z,270
2017-08-22T09:32:40.296Z,255
2017-08-22T09:33:40.346Z,260
2017-08-22T09:35:40.687Z,275
2017-08-22T09:36:55.027Z,280
2017-08-22T09:37:55.340Z,285
2017-08-22T09:38:40.770Z,300
2017-08-22T09:39:55.395Z,315
2017-08-22T09:40:40.845Z,325
2017-08-22T09:41:55.482Z,345
2017-08-22T09:42:40.877Z,350
2017-08-22T09:43:40.925Z,325
2017-08-22T09:44:55.248Z,330
2017-08-22T09:45:40.986Z,325
2017-08-22T09:46:41.034Z,330
2017-08-22T09:47:55.622Z,355
2017-08-22T09:48:41.020Z,315
2017-08-22T09:49:41.081Z,325
2017-08-22T09:50:41.115Z,330
2017-08-22T09:51:41.138Z,330
2017-08-22T09:52:41.151Z,305
2017-08-22T09:53:41.184Z,330
2017-08-22T09:54:40.894Z,320
2017-08-22T09:55:41.262Z,315
2017-08-22T09:56:41.253Z,305
2017-08-22T09:57:41.331Z,285
2017-08-22T09:58:41.338Z,270
2017-08-22T09:59:41.402Z,250
2017-08-22T10:00:40.762Z,240
2017-08-22T10:01:41.388Z,240
2017-08-22T10:03:41.155Z,280
2017-08-22T10:05:41.199Z,295
2017-08-22T10:06:41.565Z,315
2017-08-22T10:07:41.555Z,315
2017-08-22T10:08:41.611Z,320
2017-08-22T10:10:10.817Z,315
2017-08-22T10:10:41.903Z,315
2017-08-22T10:11:41.683Z,315
2017-08-22T10:12:41.726Z,280
2017-08-22T10:13:41.782Z,260
2017-08-22T10:14:41.786Z,255
2017-08-22T10:15:56.078Z,260
2017-08-22T10:16:56.439Z,265
2017-08-22T10:17:41.835Z,260
2017-08-22T10:18:56.162Z,255
2017-08-22T10:19:41.932Z,345
2017-08-22T10:20:41.312Z,285
2017-08-22T10:21:41.373Z,255
2017-08-22T10:22:41.767Z,175
2017-08-22T10:23:42.045Z,170
2017-08-22T10:24:41.720Z,180
2017-08-22T10:25:56.676Z,175
2017-08-22T10:26:42.100Z,230
2017-08-22T10:27:56.475Z,165
2017-08-22T10:28:41.857Z,160
2017-08-22T10:29:56.777Z,155
2017-08-22T10:30:42.225Z,145
2017-08-22T10:31:42.222Z,140
2017-08-22T10:32:41.958Z,140
2017-08-22T10:33:56.891Z,135
2017-08-22T10:34:41.708Z,140
2017-08-22T10:35:42.353Z,145
2017-08-22T10:36:56.969Z,140
2017-08-22T10:37:42.395Z,150
2017-08-22T10:38:57.015Z,170
2017-08-22T10:39:42.468Z,165
2017-08-22T10:40:42.491Z,160
2017-08-22T10:41:57.088Z,245
2017-08-22T10:42:42.524Z,180
2017-08-22T10:43:42.302Z,130
2017-08-22T10:44:42.294Z,125
2017-08-22T10:45:42.621Z,115
2017-08-22T10:46:42.619Z,110
2017-08-22T10:47:57.272Z,110
2017-08-22T10:48:42.377Z,105
2017-08-22T10:49:42.415Z,95
2017-08-22T10:50:42.735Z,90
2017-08-22T10:51:42.784Z,90
2017-08-22T10:52:57.397Z,90
2017-08-22T10:53:42.818Z,95
2017-08-22T10:54:42.542Z,95
2017-08-22T10:56:42.600Z,90
2017-08-22T10:58:11.810Z,90
2017-08-22T10:59:42.996Z,100
2017-08-22T11:00:42.701Z,105
2017-08-22T11:01:42.760Z,110
2017-08-22T11:02:42.728Z,120
2017-08-22T11:03:42.859Z,125
2017-08-22T11:05:43.163Z,125
2017-08-22T11:06:43.150Z,125
2017-08-22T11:07:42.886Z,125
2017-08-22T11:08:42.910Z,120
2017-08-22T11:09:43.269Z,120
2017-08-22T11:10:42.964Z,115
2017-08-22T11:11:57.914Z,105
2017-08-22T11:13:12.213Z,100
2017-08-22T11:14:43.380Z,90
2017-08-22T11:15:43.394Z,90
2017-08-22T11:16:43.453Z,90
2017-08-22T11:17:43.438Z,90
2017-08-22T11:18:43.494Z,95
2017-08-22T11:19:43.197Z,100
2017-08-22T11:20:43.528Z,100
2017-08-22T11:21:43.270Z,100
2017-08-22T11:22:57.865Z,100
2017-08-22T11:24:58.232Z,105
2017-08-22T11:25:43.626Z,105
2017-08-22T11:26:43.419Z,110
2017-08-22T11:27:43.686Z,115
2017-08-22T11:28:43.734Z,125
2017-08-22T11:29:43.739Z,130
2017-08-22T11:30:43.458Z,135
2017-08-22T11:32:43.506Z,145
2017-08-22T11:33:43.535Z,150
2017-08-22T11:34:43.583Z,155
2017-08-22T11:35:42.977Z,160
2017-08-22T11:36:43.632Z,170
2017-08-22T11:37:43.941Z,185
2017-08-22T11:38:43.691Z,185
2017-08-22T11:39:44.017Z,185
2017-08-22T11:40:43.420Z,185
2017-08-22T11:41:44.064Z,185
2017-08-22T11:42:58.686Z,185
2017-08-22T11:43:58.723Z,185
2017-08-22T11:44:58.724Z,185
2017-08-22T11:45:43.866Z,185
2017-08-22T11:46:43.860Z,185
2017-08-22T11:47:44.208Z,180
2017-08-22T11:48:44.249Z,170
2017-08-22T11:49:44.281Z,165
2017-08-22T11:50:44.002Z,150
2017-08-22T11:51:44.310Z,140
2017-08-22T11:52:44.340Z,135
2017-08-22T11:53:44.365Z,125
2017-08-22T11:54:44.396Z,115
2017-08-22T11:55:44.426Z,105
2017-08-22T11:56:44.147Z,100
2017-08-22T11:57:44.158Z,95
2017-08-22T11:58:44.505Z,90
2017-08-22T11:59:44.504Z,90
2017-08-22T12:00:59.135Z,90
2017-08-22T12:01:44.590Z,90
2017-08-22T12:02:44.596Z,95
2017-08-22T12:03:44.312Z,100
2017-08-22T12:04:44.332Z,105
2017-08-22T12:05:44.368Z,110
2017-08-22T12:06:44.715Z,110
2017-08-22T12:08:44.765Z,120
2017-08-22T12:09:44.757Z,130
2017-08-22T12:10:44.793Z,130
2017-08-22T12:11:44.518Z,135
2017-08-22T12:12:44.867Z,135
2017-08-22T12:13:44.880Z,130
2017-08-22T12:14:44.904Z,125
2017-08-22T12:15:44.912Z,115
2017-08-22T12:17:44.717Z,95
2017-08-22T12:18:44.683Z,95
2017-08-22T12:19:44.763Z,95
2017-08-22T12:20:59.337Z,95
2017-08-22T12:22:45.095Z,95
2017-08-22T12:24:59.458Z,95
2017-08-22T12:25:45.174Z,95
2017-08-22T12:27:44.909Z,105
2017-08-22T12:28:45.265Z,115
2017-08-22T12:29:44.990Z,120
2017-08-22T12:30:45.003Z,125
2017-08-22T12:31:45.347Z,130
2017-08-22T12:32:59.967Z,140
2017-08-22T12:34:14.569Z,135
2017-08-22T12:34:45.389Z,135
2017-08-22T12:35:59.743Z,145
2017-08-22T12:36:45.430Z,150
2017-08-22T12:37:45.517Z,155
2017-08-22T12:38:45.793Z,165
2017-08-22T12:39:45.532Z,170
2017-08-22T12:40:45.244Z,170
2017-08-22T12:41:59.879Z,175
2017-08-22T12:42:44.987Z,175
2017-08-22T12:43:45.637Z,175
2017-08-22T12:44:45.679Z,185
2017-08-22T12:46:00.285Z,185
2017-08-22T12:46:45.720Z,185
2017-08-22T12:48:45.782Z,180
2017-08-22T12:50:00.409Z,175
2017-08-22T12:50:45.501Z,175
2017-08-22T12:51:44.927Z,170
2017-08-22T12:53:00.448Z,170
2017-08-22T12:53:45.592Z,170
2017-08-22T12:54:45.922Z,170
2017-08-22T12:56:00.249Z,225
2017-08-22T12:56:45.966Z,215
2017-08-22T12:57:45.665Z,175
2017-08-22T12:58:45.706Z,165
2017-08-22T12:59:45.750Z,165
2017-08-22T13:00:45.753Z,170
2017-08-22T13:01:45.802Z,170
2017-08-22T13:02:46.140Z,170
2017-08-22T13:03:46.153Z,170
2017-08-22T13:04:45.859Z,165
2017-08-22T13:05:45.588Z,160
2017-08-22T13:06:45.303Z,150
2017-08-22T13:08:00.844Z,140
2017-08-22T13:08:46.266Z,135
2017-08-22T13:09:46.321Z,130
2017-08-22T13:10:46.334Z,125
2017-08-22T13:11:46.367Z,115
2017-08-22T13:13:45.794Z,110
2017-08-22T13:14:46.116Z,105
2017-08-22T13:15:45.844Z,105
2017-08-22T13:16:46.477Z,105
2017-08-22T13:17:46.200Z,105
2017-08-22T13:18:46.210Z,110
2017-08-22T13:20:00.846Z,120
2017-08-22T13:20:46.575Z,120
2017-08-22T13:21:46.306Z,130
2017-08-22T13:23:00.612Z,135
2017-08-22T13:23:46.672Z,135
2017-08-22T13:24:46.354Z,140
2017-08-22T13:25:46.720Z,150
2017-08-22T13:26:46.727Z,155
2017-08-22T13:27:46.776Z,155
2017-08-22T13:28:46.169Z,160
2017-08-22T13:30:01.417Z,160
2017-08-22T13:31:01.447Z,165
2017-08-22T13:31:46.559Z,180
2017-08-22T13:33:46.285Z,160
2017-08-22T13:34:46.649Z,150
2017-08-22T13:36:01.263Z,145
2017-08-22T13:36:46.981Z,145
2017-08-22T13:37:47.014Z,175
2017-08-22T13:38:47.018Z,150
2017-08-22T13:40:01.381Z,185
2017-08-22T13:41:01.667Z,145
2017-08-22T13:41:47.118Z,145
2017-08-22T13:42:46.833Z,180
2017-08-22T13:43:46.857Z,185
2017-08-22T13:45:01.794Z,150
2017-08-22T13:45:46.889Z,150
2017-08-22T13:46:46.949Z,185
2017-08-22T13:47:47.275Z,140
2017-08-22T13:48:47.357Z,140
2017-08-22T13:49:47.023Z,140
2017-08-22T13:51:01.621Z,140
2017-08-22T13:52:01.978Z,140
2017-08-22T13:52:47.418Z,140
2017-08-22T13:53:47.422Z,140
2017-08-22T13:54:47.464Z,140
2017-08-22T13:55:47.479Z,140
2017-08-22T13:56:47.524Z,135
2017-08-22T13:58:02.142Z,135
2017-08-22T13:58:47.556Z,130
2017-08-22T13:59:47.581Z,130
2017-08-22T14:00:47.307Z,125
2017-08-22T14:01:47.611Z,125
2017-08-22T14:03:47.669Z,120
2017-08-22T14:04:47.700Z,120
2017-08-22T14:05:47.758Z,120
2017-08-22T14:06:47.752Z,120
2017-08-22T14:08:02.398Z,125
2017-08-22T14:09:02.078Z,125
2017-08-22T14:09:47.210Z,130
2017-08-22T14:10:47.251Z,125
2017-08-22T14:11:47.584Z,125
2017-08-22T14:12:47.616Z,130
2017-08-22T14:13:47.672Z,130
2017-08-22T14:15:02.563Z,135
2017-08-22T14:15:47.981Z,130
2017-08-22T14:16:47.394Z,135
2017-08-22T14:17:47.741Z,135
2017-08-22T14:18:48.065Z,140
2017-08-22T14:19:48.096Z,165
2017-08-22T14:20:48.103Z,140
2017-08-22T14:21:47.859Z,140
2017-08-22T14:23:02.758Z,135
2017-08-22T14:23:47.888Z,140
2017-08-22T14:25:02.818Z,140
2017-08-22T14:25:47.925Z,150
2017-08-22T14:27:02.883Z,125
2017-08-22T14:27:47.985Z,145
2017-08-22T14:28:48.026Z,135
2017-08-22T14:29:48.363Z,125
2017-08-22T14:30:48.062Z,125
2017-08-22T14:32:02.366Z,130
2017-08-22T14:32:48.397Z,150
2017-08-22T14:33:48.147Z,140
2017-08-22T14:34:48.148Z,130
2017-08-22T14:35:48.205Z,145
2017-08-22T14:36:48.204Z,145
2017-08-22T14:38:03.153Z,145
2017-08-22T14:38:48.265Z,140
2017-08-22T14:40:03.185Z,150
2017-08-22T14:40:48.622Z,150
2017-08-22T14:42:03.250Z,150
2017-08-22T14:42:48.680Z,150
2017-08-22T14:43:48.093Z,135
2017-08-22T14:44:48.395Z,125
2017-08-22T14:45:48.755Z,150
2017-08-22T14:46:48.795Z,150
2017-08-22T14:47:48.808Z,130
2017-08-22T14:49:03.421Z,130
2017-08-22T14:49:48.857Z,145
2017-08-22T14:50:48.878Z,115
2017-08-22T14:51:48.889Z,125
2017-08-22T14:52:48.934Z,115
2017-08-22T14:55:03.281Z,100
2017-08-22T14:55:48.999Z,100
2017-08-22T14:56:49.018Z,100
2017-08-22T14:57:49.072Z,95